createdAt,value
2023-04-11T00:00:58.641Z,17.00
2023-04-11T00:03:28.956Z,16.90
2023-04-11T00:05:57.090Z,17.00
2023-04-11T00:08:25.449Z,16.90
2023-04-11T00:10:53.342Z,16.90
2023-04-11T00:13:21.364Z,16.90
2023-04-11T00:15:49.257Z,16.90
2023-04-11T00:18:18.327Z,16.90
2023-04-11T00:20:47.518Z,16.90
2023-04-11T00:23:15.405Z,16.90
2023-04-11T00:25:43.389Z,16.90
2023-04-11T00:28:11.587Z,16.90
2023-04-11T00:30:39.727Z,16.90
2023-04-11T00:33:07.702Z,16.90
2023-04-11T00:35:37.770Z,16.90
2023-04-11T00:38:07.185Z,16.90
2023-04-11T00:40:35.448Z,16.90
2023-04-11T00:43:04.288Z,16.90
2023-04-11T00:45:32.236Z,16.90
2023-04-11T00:48:00.654Z,16.90
2023-04-11T00:50:29.148Z,16.90
2023-04-11T00:52:59.126Z,16.80
2023-04-11T00:55:28.865Z,16.80
2023-04-11T00:57:57.542Z,16.80
2023-04-11T01:00:26.662Z,16.80
2023-04-11T01:02:55.174Z,16.80
2023-04-11T01:05:23.476Z,16.80
2023-04-11T01:07:54.909Z,16.80
2023-04-11T01:10:24.196Z,16.80
2023-04-11T01:12:54.635Z,16.80
2023-04-11T01:15:22.647Z,16.80
2023-04-11T01:17:52.892Z,16.80
2023-04-11T01:20:21.457Z,16.80
2023-04-11T01:22:50.923Z,16.80
2023-04-11T01:25:22.551Z,16.80
2023-04-11T01:27:50.635Z,16.80
2023-04-11T01:30:18.572Z,16.80
2023-04-11T01:32:46.548Z,16.80
2023-04-11T01:35:15.049Z,16.80
2023-04-11T01:37:43.130Z,16.90
2023-04-11T01:40:11.558Z,16.80
2023-04-11T01:42:41.774Z,16.80
2023-04-11T01:45:12.956Z,16.80
2023-04-11T01:47:41.075Z,16.80
2023-04-11T01:50:12.058Z,16.80
2023-04-11T01:52:40.148Z,16.80
2023-04-11T01:55:09.440Z,16.80
2023-04-11T01:57:38.286Z,16.90
2023-04-11T02:00:10.904Z,16.80
2023-04-11T02:02:44.762Z,16.80
2023-04-11T02:05:13.096Z,16.80
2023-04-11T02:07:41.198Z,16.80
2023-04-11T02:10:10.379Z,16.80
2023-04-11T02:12:38.266Z,16.80
2023-04-11T02:15:09.942Z,16.80
2023-04-11T02:17:37.916Z,16.90
2023-04-11T02:20:07.845Z,16.90
2023-04-11T02:22:36.486Z,16.90
2023-04-11T02:25:04.993Z,16.90
2023-04-11T02:27:32.911Z,16.90
2023-04-11T02:30:01.150Z,16.90
2023-04-11T02:32:30.416Z,16.90
2023-04-11T02:34:58.441Z,16.90
2023-04-11T02:37:27.003Z,16.90
2023-04-11T02:39:55.344Z,16.80
2023-04-11T02:42:23.290Z,16.90
2023-04-11T02:44:51.219Z,16.90
2023-04-11T02:47:20.558Z,16.90
2023-04-11T02:49:49.964Z,16.90
2023-04-11T02:52:23.178Z,16.90
2023-04-11T02:54:51.102Z,16.90
2023-04-11T02:57:19.127Z,16.90
2023-04-11T02:59:47.075Z,16.90
2023-04-11T03:02:17.324Z,16.90
2023-04-11T03:04:46.450Z,16.90
2023-04-11T03:07:19.084Z,16.90
2023-04-11T03:09:46.994Z,16.90
2023-04-11T03:12:14.914Z,16.90
2023-04-11T03:14:53.203Z,16.90
2023-04-11T03:17:22.110Z,16.90
2023-04-11T03:19:50.804Z,16.90
2023-04-11T03:22:20.157Z,16.90
2023-04-11T03:24:49.908Z,16.90
2023-04-11T03:27:20.910Z,16.90
2023-04-11T03:29:53.046Z,16.90
2023-04-11T03:32:28.567Z,16.90
2023-04-11T03:34:56.492Z,16.90
2023-04-11T03:37:25.841Z,16.90
2023-04-11T03:39:53.818Z,16.90
2023-04-11T03:42:22.055Z,16.90
2023-04-11T03:44:54.735Z,16.90
2023-04-11T03:47:24.979Z,16.90
2023-04-11T03:49:53.175Z,16.90
2023-04-11T03:52:21.466Z,16.90
2023-04-11T03:54:51.811Z,16.90
2023-04-11T03:57:20.264Z,16.90
2023-04-11T03:59:48.239Z,16.90
2023-04-11T04:02:17.172Z,16.90
2023-04-11T04:04:55.252Z,16.90
2023-04-11T04:07:27.572Z,16.90
2023-04-11T04:10:05.671Z,16.90
2023-04-11T04:12:33.724Z,16.90
2023-04-11T04:15:30.852Z,16.90
2023-04-11T04:17:58.895Z,16.90
2023-04-11T04:20:39.878Z,16.80
2023-04-11T04:23:09.079Z,16.80
2023-04-11T04:25:52.647Z,16.80
2023-04-11T04:28:25.958Z,16.80
2023-04-11T04:30:58.126Z,16.80
2023-04-11T04:33:33.024Z,16.80
2023-04-11T04:36:04.281Z,16.80
2023-04-11T04:38:38.297Z,16.80
2023-04-11T04:41:14.979Z,16.80
2023-04-11T04:43:46.485Z,16.80
2023-04-11T04:46:23.121Z,16.80
2023-04-11T04:48:52.704Z,16.70
2023-04-11T04:51:20.701Z,16.80
2023-04-11T04:53:48.580Z,16.70
2023-04-11T04:56:18.131Z,16.70
2023-04-11T04:58:48.348Z,16.70
2023-04-11T05:01:18.007Z,16.70
2023-04-11T05:03:50.872Z,16.70
2023-04-11T05:06:29.162Z,16.70
2023-04-11T05:08:59.240Z,16.70
2023-04-11T05:11:29.414Z,16.70
2023-04-11T05:13:57.693Z,16.70
2023-04-11T05:16:25.881Z,16.70
2023-04-11T05:18:53.982Z,16.70
2023-04-11T05:21:22.301Z,16.70
2023-04-11T05:23:52.920Z,16.70
2023-04-11T05:26:20.940Z,16.70
2023-04-11T05:28:50.572Z,16.70
2023-04-11T05:31:22.141Z,16.70
2023-04-11T05:33:50.116Z,16.70
2023-04-11T05:36:18.272Z,16.70
2023-04-11T05:38:46.876Z,16.70
2023-04-11T05:41:14.794Z,16.70
2023-04-11T05:43:42.749Z,16.70
2023-04-11T05:46:12.731Z,16.60
2023-04-11T05:48:41.380Z,16.70
2023-04-11T05:51:10.868Z,16.70
2023-04-11T05:53:38.862Z,16.70
2023-04-11T05:56:08.005Z,16.70
2023-04-11T05:58:37.575Z,16.70
2023-04-11T06:01:07.272Z,16.70
2023-04-11T06:03:36.867Z,16.60
2023-04-11T06:06:05.243Z,16.60
2023-04-11T06:08:34.344Z,16.60
2023-04-11T06:11:02.297Z,16.60
2023-04-11T06:13:30.320Z,16.60
2023-04-11T06:15:58.382Z,16.60
2023-04-11T06:18:26.271Z,16.60
2023-04-11T06:20:55.586Z,16.60
2023-04-11T06:23:23.512Z,16.60
2023-04-11T06:25:51.551Z,16.60
2023-04-11T06:28:19.500Z,16.60
2023-04-11T06:30:47.418Z,16.60
2023-04-11T06:33:15.359Z,16.50
2023-04-11T06:35:43.347Z,16.60
2023-04-11T06:38:12.648Z,16.60
2023-04-11T06:40:40.565Z,16.60
2023-04-11T06:43:08.576Z,16.60
2023-04-11T06:45:36.593Z,16.60
2023-04-11T06:48:04.756Z,16.60
2023-04-11T06:50:32.765Z,16.60
2023-04-11T06:53:00.882Z,16.60
2023-04-11T06:55:30.134Z,16.50
2023-04-11T06:57:58.036Z,16.60
2023-04-11T07:00:26.354Z,16.60
2023-04-11T07:02:54.502Z,16.60
2023-04-11T07:05:22.593Z,16.60
2023-04-11T07:07:50.805Z,16.60
2023-04-11T07:10:18.769Z,16.60
2023-04-11T07:12:48.068Z,16.60
2023-04-11T07:15:16.015Z,16.60
2023-04-11T07:17:43.946Z,16.60
2023-04-11T07:20:13.648Z,16.60
2023-04-11T07:22:43.535Z,16.50
2023-04-11T07:25:11.687Z,16.50
2023-04-11T07:27:40.359Z,16.50
2023-04-11T07:30:11.362Z,16.50
2023-04-11T07:32:39.302Z,16.60
2023-04-11T07:35:08.344Z,16.60
2023-04-11T07:37:36.193Z,16.60
2023-04-11T07:40:06.894Z,16.50
2023-04-11T07:42:34.886Z,16.60
2023-04-11T07:45:02.773Z,16.60
2023-04-11T07:47:32.051Z,16.60
2023-04-11T07:50:00.206Z,16.60
2023-04-11T07:52:28.069Z,16.60
2023-04-11T07:55:04.423Z,16.60
2023-04-11T07:57:32.339Z,16.60
2023-04-11T08:00:00.521Z,16.60
2023-04-11T08:02:28.646Z,16.60
2023-04-11T08:04:58.057Z,16.60
2023-04-11T08:07:26.158Z,16.60
2023-04-11T08:09:54.095Z,16.60
2023-04-11T08:12:21.934Z,16.60
2023-04-11T08:14:49.836Z,16.60
2023-04-11T08:17:27.846Z,16.60
2023-04-11T08:19:58.512Z,16.60
2023-04-11T08:22:26.611Z,16.60
2023-04-11T08:24:54.549Z,16.60
2023-04-11T08:27:22.517Z,16.60
2023-04-11T08:29:50.690Z,16.60
2023-04-11T08:32:18.822Z,16.60
2023-04-11T08:34:46.717Z,16.60
2023-04-11T08:37:15.928Z,16.60
2023-04-11T08:39:43.828Z,16.60
2023-04-11T08:42:23.875Z,16.60
2023-04-11T08:44:55.469Z,16.60
2023-04-11T08:47:23.645Z,16.70
2023-04-11T08:49:52.718Z,16.70
2023-04-11T08:52:22.114Z,16.70
2023-04-11T08:54:55.241Z,16.60
2023-04-11T08:57:31.179Z,16.70
2023-04-11T09:00:07.334Z,16.70
2023-04-11T09:02:35.833Z,16.70
2023-04-11T09:05:04.096Z,16.70
2023-04-11T09:07:49.942Z,16.70
2023-04-11T09:10:22.338Z,16.70
2023-04-11T09:12:50.332Z,16.70
2023-04-11T09:15:23.537Z,16.70
2023-04-11T09:17:52.060Z,16.80
2023-04-11T09:20:25.799Z,16.70
2023-04-11T09:22:55.508Z,16.80
2023-04-11T09:25:24.850Z,16.80
2023-04-11T09:28:09.668Z,16.80
2023-04-11T09:30:37.658Z,16.90
2023-04-11T09:33:22.553Z,16.80
2023-04-11T09:35:53.621Z,16.90
2023-04-11T09:38:35.142Z,16.80
2023-04-11T09:41:06.046Z,16.90
2023-04-11T09:43:50.394Z,16.90
2023-04-11T09:46:21.210Z,16.90
2023-04-11T09:48:50.177Z,17.00
2023-04-11T09:51:35.105Z,17.00
2023-04-11T09:54:06.524Z,17.00
2023-04-11T09:56:35.378Z,17.00
2023-04-11T09:59:05.101Z,17.00
2023-04-11T10:01:33.710Z,17.00
2023-04-11T10:04:01.957Z,17.10
2023-04-11T10:06:34.825Z,17.10
2023-04-11T10:09:10.937Z,17.10
2023-04-11T10:11:42.872Z,17.10
2023-04-11T10:14:31.385Z,17.10
2023-04-11T10:17:20.696Z,17.10
2023-04-11T10:19:56.231Z,17.20
2023-04-11T10:23:00.807Z,17.10
2023-04-11T10:25:30.380Z,17.20
2023-04-11T10:28:03.692Z,17.20
2023-04-11T10:31:01.563Z,17.10
2023-04-11T10:33:29.537Z,17.20
2023-04-11T10:35:59.326Z,17.20
2023-04-11T10:38:49.795Z,17.20
2023-04-11T10:41:31.826Z,17.20
2023-04-11T10:44:21.528Z,17.20
2023-04-11T10:46:53.829Z,17.30
2023-04-11T10:49:37.498Z,17.30
2023-04-11T10:52:20.614Z,17.30
2023-04-11T10:54:49.262Z,17.30
2023-04-11T10:57:19.001Z,17.40
2023-04-11T11:00:15.368Z,17.30
2023-04-11T11:02:43.447Z,17.40
2023-04-11T11:05:20.423Z,17.30
2023-04-11T11:07:51.673Z,17.30
2023-04-11T11:10:43.572Z,17.30
2023-04-11T11:13:15.934Z,17.30
2023-04-11T11:15:50.185Z,17.30
2023-04-11T11:18:19.532Z,17.30
2023-04-11T11:20:47.415Z,17.30
2023-04-11T11:23:15.409Z,17.30
2023-04-11T11:25:54.678Z,17.30
2023-04-11T11:28:25.036Z,17.30
2023-04-11T11:30:55.634Z,17.30
2023-04-11T11:33:26.539Z,17.30
2023-04-11T11:35:57.657Z,17.30
2023-04-11T11:38:28.483Z,17.30
2023-04-11T11:40:58.345Z,17.30
2023-04-11T11:43:28.572Z,17.30
2023-04-11T11:46:15.107Z,17.20
2023-04-11T11:48:44.728Z,17.20
2023-04-11T11:51:12.603Z,17.30
2023-04-11T11:53:40.580Z,17.20
2023-04-11T11:56:16.327Z,17.20
2023-04-11T11:58:46.097Z,17.20
2023-04-11T12:01:18.188Z,17.20
2023-04-11T12:03:51.493Z,17.20
2023-04-11T12:06:20.227Z,17.20
2023-04-11T12:08:51.846Z,17.20
2023-04-11T12:11:19.784Z,17.20
2023-04-11T12:13:54.169Z,17.20
2023-04-11T12:16:23.991Z,17.20
2023-04-11T12:18:52.087Z,17.20
2023-04-11T12:21:20.060Z,17.30
2023-04-11T12:23:47.950Z,17.20
2023-04-11T12:26:17.584Z,17.30
2023-04-11T12:28:45.424Z,17.30
2023-04-11T12:31:14.813Z,17.30
2023-04-11T12:33:42.703Z,17.30
2023-04-11T12:36:12.300Z,17.30
2023-04-11T12:38:41.058Z,17.30
2023-04-11T12:43:42.173Z,17.30
2023-04-11T12:46:10.090Z,17.30
2023-04-11T12:48:39.403Z,17.30
2023-04-11T12:51:07.720Z,17.40
2023-04-11T12:53:35.624Z,17.30
2023-04-11T12:56:03.876Z,17.40
2023-04-11T12:58:33.020Z,17.40
2023-04-11T13:01:00.943Z,17.40
2023-04-11T13:03:29.405Z,17.40
2023-04-11T13:05:58.765Z,17.40
2023-04-11T13:08:27.196Z,17.40
2023-04-11T13:10:55.965Z,17.40
2023-04-11T13:13:23.897Z,17.50
2023-04-11T13:15:51.890Z,17.40
2023-04-11T13:18:19.880Z,17.50
2023-04-11T13:20:47.729Z,17.40
2023-04-11T13:23:17.492Z,17.40
2023-04-11T13:25:45.679Z,17.40
2023-04-11T13:28:13.588Z,17.40
2023-04-11T13:30:41.842Z,17.40
2023-04-11T13:33:09.753Z,17.40
2023-04-11T13:35:37.705Z,17.40
2023-04-11T13:38:06.132Z,17.40
2023-04-11T13:40:35.848Z,17.40
2023-04-11T13:43:03.897Z,17.40
2023-04-11T13:45:32.236Z,17.50
2023-04-11T13:48:00.346Z,17.40
2023-04-11T13:50:28.271Z,17.40
2023-04-11T13:52:57.072Z,17.50
2023-04-11T13:55:25.132Z,17.50
2023-04-11T13:57:54.398Z,17.50
2023-04-11T14:00:23.365Z,17.40
2023-04-11T14:02:52.644Z,17.40
2023-04-11T14:05:20.895Z,17.50
2023-04-11T14:07:49.489Z,17.50
2023-04-11T14:10:17.945Z,17.50
2023-04-11T14:12:46.433Z,17.50
2023-04-11T14:15:15.733Z,17.50
2023-04-11T14:17:44.041Z,17.50
2023-04-11T14:20:12.434Z,17.60
2023-04-11T14:22:40.799Z,17.60
2023-04-11T14:25:11.132Z,17.50
2023-04-11T14:27:41.154Z,17.60
2023-04-11T14:30:10.736Z,17.50
2023-04-11T14:32:40.561Z,17.60
2023-04-11T14:35:09.835Z,17.60
2023-04-11T14:37:37.980Z,17.60
2023-04-11T14:40:10.069Z,17.60
2023-04-11T14:42:37.981Z,17.60
2023-04-11T14:45:07.510Z,17.60
2023-04-11T14:47:35.717Z,17.60
2023-04-11T14:50:06.036Z,17.60
2023-04-11T14:52:33.909Z,17.60
2023-04-11T14:55:01.824Z,17.50
2023-04-11T14:57:46.329Z,17.50
2023-04-11T15:00:19.705Z,17.50
2023-04-11T15:02:49.172Z,17.50
2023-04-11T15:05:19.728Z,17.50
2023-04-11T15:07:49.796Z,17.50
2023-04-11T15:10:19.976Z,17.40
2023-04-11T15:12:48.023Z,17.50
2023-04-11T15:15:16.316Z,17.40
2023-04-11T15:17:47.291Z,17.40
2023-04-11T15:20:16.910Z,17.40
2023-04-11T15:22:47.246Z,17.40
2023-04-11T15:25:16.726Z,17.40
2023-04-11T15:27:44.801Z,17.40
2023-04-11T15:30:13.603Z,17.40
2023-04-11T15:32:44.309Z,17.40
2023-04-11T15:35:12.834Z,17.40
2023-04-11T15:37:40.891Z,17.40
2023-04-11T15:40:12.067Z,17.40
2023-04-11T15:42:40.385Z,17.40
2023-04-11T15:45:09.657Z,17.30
2023-04-11T15:47:37.693Z,17.40
2023-04-11T15:50:07.421Z,17.30
2023-04-11T15:52:35.354Z,17.30
2023-04-11T15:55:03.312Z,17.30
2023-04-11T15:57:32.913Z,17.30
2023-04-11T16:00:01.217Z,17.30
2023-04-11T16:02:37.850Z,17.30
2023-04-11T16:05:07.854Z,17.30
2023-04-11T16:07:36.010Z,17.30
2023-04-11T16:10:04.307Z,17.30
2023-04-11T16:12:33.564Z,17.30
2023-04-11T16:15:01.567Z,17.30
2023-04-11T16:17:29.575Z,17.30
2023-04-11T16:19:57.507Z,17.30
2023-04-11T16:22:25.823Z,17.30
2023-04-11T16:24:54.248Z,17.20
2023-04-11T16:27:22.196Z,17.20
2023-04-11T16:29:53.832Z,17.20
2023-04-11T16:32:22.106Z,17.20
2023-04-11T16:34:50.776Z,17.20
2023-04-11T16:37:18.696Z,17.20
2023-04-11T16:43:07.089Z,17.20
2023-04-11T16:45:36.294Z,17.10
2023-04-11T16:48:04.244Z,17.10
2023-04-11T16:50:32.233Z,17.10
2023-04-11T16:53:00.127Z,17.10
2023-04-11T16:55:27.990Z,17.10
2023-04-11T16:57:55.895Z,17.10
2023-04-11T17:00:24.511Z,17.10
2023-04-11T17:02:53.882Z,17.10
2023-04-11T17:05:23.939Z,17.10
2023-04-11T17:07:51.913Z,17.10
2023-04-11T17:10:21.276Z,17.10
2023-04-11T17:12:49.182Z,17.10
2023-04-11T17:15:17.029Z,17.10
2023-04-11T17:17:45.229Z,17.10
2023-04-11T17:20:14.654Z,17.10
2023-04-11T17:22:44.295Z,17.10
2023-04-11T17:25:12.472Z,17.10
2023-04-11T17:27:41.226Z,17.10
2023-04-11T17:30:10.130Z,17.10
2023-04-11T17:32:38.313Z,17.10
2023-04-11T17:35:07.772Z,17.10
2023-04-11T17:37:37.006Z,17.10
2023-04-11T17:40:11.614Z,17.10
2023-04-11T17:42:40.090Z,17.10
2023-04-11T17:45:17.830Z,17.10
2023-04-11T17:47:47.491Z,17.10
2023-04-11T17:50:16.771Z,17.10
2023-04-11T17:52:48.297Z,17.00
2023-04-11T17:55:18.873Z,17.00
2023-04-11T17:57:49.049Z,17.00
2023-04-11T18:00:23.002Z,16.90
2023-04-11T18:02:54.536Z,16.90
2023-04-11T18:05:26.573Z,16.90
2023-04-11T18:07:58.035Z,16.90
2023-04-11T18:10:28.237Z,16.80
2023-04-11T18:12:59.082Z,16.80
2023-04-11T18:15:28.011Z,16.80
2023-04-11T18:17:56.162Z,16.80
2023-04-11T18:20:24.325Z,16.70
2023-04-11T18:22:56.264Z,16.70
2023-04-11T18:25:25.182Z,16.70
2023-04-11T18:27:53.041Z,16.70
2023-04-11T18:30:20.946Z,16.70
2023-04-11T18:32:50.993Z,16.70
2023-04-11T18:35:19.538Z,16.60
2023-04-11T18:37:47.614Z,16.60
2023-04-11T18:40:17.903Z,16.60
2023-04-11T18:42:48.870Z,16.60
2023-04-11T18:45:20.487Z,16.60
2023-04-11T18:47:48.500Z,16.50
2023-04-11T18:50:17.881Z,16.50
2023-04-11T18:52:48.486Z,16.50
2023-04-11T18:55:20.718Z,16.50
2023-04-11T18:57:49.381Z,16.50
2023-04-11T19:00:20.584Z,16.50
2023-04-11T19:02:50.808Z,16.50
2023-04-11T19:05:19.210Z,16.40
2023-04-11T19:07:47.480Z,16.40
2023-04-11T19:10:15.402Z,16.40
2023-04-11T19:12:44.718Z,16.40
2023-04-11T19:15:13.619Z,16.40
2023-04-11T19:17:41.694Z,16.40
2023-04-11T19:20:13.406Z,16.30
2023-04-11T19:22:41.837Z,16.30
2023-04-11T19:25:11.927Z,16.30
2023-04-11T19:27:41.866Z,16.30
2023-04-11T19:30:13.608Z,16.20
2023-04-11T19:32:43.584Z,16.20
2023-04-11T19:35:12.883Z,16.20
2023-04-11T19:37:41.233Z,16.20
2023-04-11T19:40:13.546Z,16.20
2023-04-11T19:42:41.978Z,16.20
2023-04-11T19:45:12.993Z,16.10
2023-04-11T19:47:42.016Z,16.10
2023-04-11T19:50:13.738Z,16.10
2023-04-11T19:52:43.104Z,16.10
2023-04-11T19:55:12.271Z,16.00
2023-04-11T19:57:40.959Z,16.00
2023-04-11T20:00:13.953Z,16.00
2023-04-11T20:02:47.992Z,16.00
2023-04-11T20:05:19.811Z,15.90
2023-04-11T20:07:48.372Z,15.90
2023-04-11T20:10:18.447Z,15.90
2023-04-11T20:12:46.396Z,15.90
2023-04-11T20:15:15.813Z,15.80
2023-04-11T20:17:45.792Z,15.80
2023-04-11T20:20:15.607Z,15.80
2023-04-11T20:22:45.262Z,15.80
2023-04-11T20:25:13.658Z,15.80
2023-04-11T20:27:43.261Z,15.80
2023-04-11T20:30:13.118Z,15.70
2023-04-11T20:32:42.613Z,15.70
2023-04-11T20:35:12.862Z,15.70
2023-04-11T20:37:41.287Z,15.70
2023-04-11T20:40:11.469Z,15.60
2023-04-11T20:42:42.145Z,15.60
2023-04-11T20:45:13.184Z,15.60
2023-04-11T20:47:45.974Z,15.60
2023-04-11T20:50:16.820Z,15.50
2023-04-11T20:52:47.204Z,15.50
2023-04-11T20:55:15.591Z,15.50
2023-04-11T20:57:44.638Z,15.50
2023-04-11T21:00:14.725Z,15.50
2023-04-11T21:02:46.219Z,15.40
2023-04-11T21:05:14.934Z,15.40
2023-04-11T21:07:43.435Z,15.40
2023-04-11T21:10:13.025Z,15.40
2023-04-11T21:12:42.365Z,15.40
2023-04-11T21:15:11.994Z,15.40
2023-04-11T21:17:40.314Z,15.30
2023-04-11T21:20:17.895Z,15.30
2023-04-11T21:22:47.590Z,15.30
2023-04-11T21:25:16.679Z,15.30
2023-04-11T21:27:44.715Z,15.20
2023-04-11T21:30:14.512Z,15.20
2023-04-11T21:32:42.701Z,15.20
2023-04-11T21:35:13.372Z,15.20
2023-04-11T21:37:41.368Z,15.10
2023-04-11T21:40:10.787Z,15.10
2023-04-11T21:42:39.060Z,15.10
2023-04-11T21:45:09.220Z,15.10
2023-04-11T21:47:37.194Z,15.10
2023-04-11T21:50:06.031Z,15.10
2023-04-11T21:52:35.242Z,15.00
2023-04-11T21:55:03.713Z,15.00
2023-04-11T21:57:33.803Z,15.00
2023-04-11T22:00:01.713Z,14.90
2023-04-11T22:02:40.168Z,14.90
2023-04-11T22:05:09.786Z,14.90
2023-04-11T22:07:39.481Z,14.90
2023-04-11T22:10:12.032Z,14.90
2023-04-11T22:12:40.587Z,14.80
2023-04-11T22:15:12.856Z,14.80
2023-04-11T22:17:43.479Z,14.80
2023-04-11T22:20:13.184Z,14.80
2023-04-11T22:22:42.410Z,14.80
2023-04-11T22:25:11.585Z,14.80
2023-04-11T22:27:39.678Z,14.70
2023-04-11T22:30:09.639Z,14.70
2023-04-11T22:32:38.097Z,14.70
2023-04-11T22:35:08.350Z,14.70
2023-04-11T22:37:36.424Z,14.60
2023-04-11T22:40:07.009Z,14.60
2023-04-11T22:42:35.699Z,14.60
2023-04-11T22:45:04.063Z,14.60
2023-04-11T22:47:34.142Z,14.60
2023-04-11T22:50:03.445Z,14.60
2023-04-11T22:52:31.479Z,14.50
2023-04-11T22:54:59.385Z,14.50
2023-04-11T22:57:28.573Z,14.50
2023-04-11T22:59:56.452Z,14.50
2023-04-11T23:02:25.285Z,14.40
2023-04-11T23:04:53.565Z,14.40
2023-04-11T23:07:22.163Z,14.40
2023-04-11T23:09:50.008Z,14.40
2023-04-11T23:12:17.874Z,14.40
2023-04-11T23:14:47.330Z,14.30
2023-04-11T23:17:15.698Z,14.30
2023-04-11T23:19:43.553Z,14.20
2023-04-11T23:22:11.479Z,14.30
2023-04-11T23:24:39.355Z,14.20
2023-04-11T23:27:07.267Z,14.20
2023-04-11T23:29:35.786Z,14.20
2023-04-11T23:32:05.213Z,14.20
2023-04-11T23:34:33.223Z,14.20
2023-04-11T23:37:01.072Z,14.10
2023-04-11T23:39:29.468Z,14.10
2023-04-11T23:41:57.337Z,14.10
2023-04-11T23:44:25.407Z,14.10
2023-04-11T23:46:53.309Z,14.10
2023-04-11T23:49:22.521Z,14.10
2023-04-11T23:51:50.384Z,14.00
2023-04-11T23:54:18.273Z,14.00
2023-04-11T23:56:46.170Z,14.00
2023-04-11T23:59:14.042Z,14.00
